sensor_id;sensor_type;location;lat;lon;timestamp;pressure;altitude;pressure_sealevel;temperature;humidity
74524;BME280;63074;44.696;10.358;2023-03-21T00:01:28;100323.22;;;8.96;100.00
74524;BME280;63074;44.696;10.358;2023-03-21T00:03:54;100328.53;;;9.03;100.00
74524;BME280;63074;44.696;10.358;2023-03-21T00:06:20;100319.91;;;9.01;100.00
74524;BME280;63074;44.696;10.358;2023-03-21T00:08:46;100320.56;;;8.96;100.00
74524;BME280;63074;44.696;10.358;2023-03-21T00:11:13;100322.78;;;8.99;100.00
74524;BME280;63074;44.696;10.358;2023-03-21T00:13:39;100325.88;;;9.03;100.00
74524;BME280;63074;44.696;10.358;2023-03-21T00:16:15;100322.56;;;9.01;100.00
74524;BME280;63074;44.696;10.358;2023-03-21T00:18:45;100317.13;;;8.58;100.00
74524;BME280;63074;44.696;10.358;2023-03-21T00:21:16;100319.69;;;8.39;100.00
74524;BME280;63074;44.696;10.358;2023-03-21T00:23:43;100315.34;;;8.45;100.00
74524;BME280;63074;44.696;10.358;2023-03-21T00:26:09;100308.16;;;8.39;100.00
74524;BME280;63074;44.696;10.358;2023-03-21T00:28:40;100309.09;;;8.13;100.00
74524;BME280;63074;44.696;10.358;2023-03-21T00:31:06;100304.38;;;8.08;100.00
74524;BME280;63074;44.696;10.358;2023-03-21T00:33:34;100306.28;;;7.95;100.00
74524;BME280;63074;44.696;10.358;2023-03-21T00:36:01;100306.06;;;8.03;100.00
74524;BME280;63074;44.696;10.358;2023-03-21T00:38:27;100306.06;;;8.03;100.00
74524;BME280;63074;44.696;10.358;2023-03-21T00:40:54;100299.94;;;7.83;100.00
74524;BME280;63074;44.696;10.358;2023-03-21T00:43:20;100300.31;;;7.99;100.00
74524;BME280;63074;44.696;10.358;2023-03-21T00:45:55;100299.78;;;7.77;100.00
74524;BME280;63074;44.696;10.358;2023-03-21T00:48:23;100297.81;;;8.04;100.00
74524;BME280;63074;44.696;10.358;2023-03-21T00:50:51;100290.72;;;8.23;100.00
74524;BME280;63074;44.696;10.358;2023-03-21T00:53:18;100281.78;;;8.42;100.00
74524;BME280;63074;44.696;10.358;2023-03-21T00:55:45;100278.41;;;8.54;100.00
74524;BME280;63074;44.696;10.358;2023-03-21T00:58:11;100277.13;;;8.63;100.00
74524;BME280;63074;44.696;10.358;2023-03-21T01:00:37;100268.06;;;8.64;100.00
74524;BME280;63074;44.696;10.358;2023-03-21T01:03:09;100272.19;;;8.60;100.00
74524;BME280;63074;44.696;10.358;2023-03-21T01:05:42;100261.78;;;8.45;100.00
74524;BME280;63074;44.696;10.358;2023-03-21T01:08:27;100248.44;;;8.38;100.00
74524;BME280;63074;44.696;10.358;2023-03-21T01:10:54;100251.84;;;8.14;100.00
74524;BME280;63074;44.696;10.358;2023-03-21T01:13:22;100249.50;;;7.93;100.00
74524;BME280;63074;44.696;10.358;2023-03-21T01:15:52;100250.06;;;8.01;100.00
74524;BME280;63074;44.696;10.358;2023-03-21T01:18:21;100240.84;;;7.91;100.00
74524;BME280;63074;44.696;10.358;2023-03-21T01:20:47;100237.81;;;7.80;100.00
74524;BME280;63074;44.696;10.358;2023-03-21T01:23:15;100242.19;;;7.68;100.00
74524;BME280;63074;44.696;10.358;2023-03-21T01:25:41;100240.53;;;7.74;100.00
74524;BME280;63074;44.696;10.358;2023-03-21T01:28:09;100232.50;;;7.74;100.00
74524;BME280;63074;44.696;10.358;2023-03-21T01:30:36;100236.44;;;7.65;100.00
74524;BME280;63074;44.696;10.358;2023-03-21T01:33:02;100231.25;;;7.76;100.00
74524;BME280;63074;44.696;10.358;2023-03-21T01:35:28;100232.50;;;7.74;100.00
74524;BME280;63074;44.696;10.358;2023-03-21T01:37:54;100227.56;;;7.77;100.00
74524;BME280;63074;44.696;10.358;2023-03-21T01:40:24;100227.88;;;7.94;100.00
74524;BME280;63074;44.696;10.358;2023-03-21T01:42:50;100224.13;;;8.02;100.00
74524;BME280;63074;44.696;10.358;2023-03-21T01:48:21;100213.94;;;8.17;100.00
74524;BME280;63074;44.696;10.358;2023-03-21T01:50:49;100214.56;;;8.19;100.00
74524;BME280;63074;44.696;10.358;2023-03-21T01:53:18;100213.91;;;8.24;100.00
74524;BME280;63074;44.696;10.358;2023-03-21T01:55:46;100212.84;;;8.31;100.00
74524;BME280;63074;44.696;10.358;2023-03-21T01:58:14;100210.56;;;8.35;100.00
74524;BME280;63074;44.696;10.358;2023-03-21T02:00:44;100213.88;;;8.30;100.00
74524;BME280;63074;44.696;10.358;2023-03-21T02:03:11;100211.41;;;8.35;100.00
74524;BME280;63074;44.696;10.358;2023-03-21T02:05:59;100203.78;;;8.32;100.00
74524;BME280;63074;44.696;10.358;2023-03-21T02:08:27;100205.84;;;8.37;100.00
74524;BME280;63074;44.696;10.358;2023-03-21T02:10:54;100206.03;;;8.35;100.00
74524;BME280;63074;44.696;10.358;2023-03-21T02:13:21;100202.53;;;8.35;100.00
74524;BME280;63074;44.696;10.358;2023-03-21T02:16:05;100202.91;;;8.38;100.00
74524;BME280;63074;44.696;10.358;2023-03-21T02:18:55;100198.97;;;8.41;100.00
74524;BME280;63074;44.696;10.358;2023-03-21T02:27:17;100195.91;;;8.37;100.00
74524;BME280;63074;44.696;10.358;2023-03-21T02:38:20;100191.84;;;7.52;100.00
74524;BME280;63074;44.696;10.358;2023-03-21T02:40:50;100195.94;;;7.61;100.00
74524;BME280;63074;44.696;10.358;2023-03-21T02:49:11;100184.22;;;7.56;100.00
74524;BME280;63074;44.696;10.358;2023-03-21T02:51:40;100186.69;;;7.57;100.00
74524;BME280;63074;44.696;10.358;2023-03-21T02:54:11;100186.88;;;7.56;100.00
74524;BME280;63074;44.696;10.358;2023-03-21T02:56:38;100176.56;;;7.66;100.00
74524;BME280;63074;44.696;10.358;2023-03-21T02:59:06;100170.19;;;7.67;100.00
74524;BME280;63074;44.696;10.358;2023-03-21T03:01:33;100175.97;;;7.64;100.00
74524;BME280;63074;44.696;10.358;2023-03-21T03:03:59;100165.66;;;7.67;100.00
74524;BME280;63074;44.696;10.358;2023-03-21T03:15:01;100165.88;;;7.66;100.00
74524;BME280;63074;44.696;10.358;2023-03-21T03:17:40;100170.91;;;7.87;100.00
74524;BME280;63074;44.696;10.358;2023-03-21T03:20:24;100171.00;;;8.05;100.00
74524;BME280;63074;44.696;10.358;2023-03-21T03:25:55;100172.16;;;8.16;100.00
74524;BME280;63074;44.696;10.358;2023-03-21T03:28:28;100167.00;;;8.14;100.00
74524;BME280;63074;44.696;10.358;2023-03-21T03:30:57;100169.19;;;7.99;100.00
74524;BME280;63074;44.696;10.358;2023-03-21T03:33:26;100174.78;;;7.91;100.00
74524;BME280;63074;44.696;10.358;2023-03-21T03:35:55;100167.41;;;7.87;100.00
74524;BME280;63074;44.696;10.358;2023-03-21T03:38:23;100161.31;;;7.73;100.00
74524;BME280;63074;44.696;10.358;2023-03-21T03:41:17;100167.56;;;7.92;100.00
74524;BME280;63074;44.696;10.358;2023-03-21T03:43:50;100165.63;;;7.74;100.00
74524;BME280;63074;44.696;10.358;2023-03-21T03:46:27;100164.03;;;7.66;100.00
74524;BME280;63074;44.696;10.358;2023-03-21T03:48:56;100171.25;;;7.59;100.00
74524;BME280;63074;44.696;10.358;2023-03-21T03:51:28;100171.66;;;7.63;100.00
74524;BME280;63074;44.696;10.358;2023-03-21T03:54:03;100167.31;;;7.68;100.00
74524;BME280;63074;44.696;10.358;2023-03-21T03:56:32;100171.75;;;7.81;100.00
74524;BME280;63074;44.696;10.358;2023-03-21T03:59:01;100168.91;;;7.76;100.00
74524;BME280;63074;44.696;10.358;2023-03-21T04:01:29;100162.56;;;7.70;100.00
74524;BME280;63074;44.696;10.358;2023-03-21T04:03:55;100162.34;;;7.72;100.00
74524;BME280;63074;44.696;10.358;2023-03-21T04:06:21;100165.22;;;7.77;100.00
74524;BME280;63074;44.696;10.358;2023-03-21T04:08:49;100162.91;;;7.80;100.00
74524;BME280;63074;44.696;10.358;2023-03-21T04:11:15;100157.59;;;7.74;100.00
74524;BME280;63074;44.696;10.358;2023-03-21T04:13:42;100160.28;;;7.74;100.00
74524;BME280;63074;44.696;10.358;2023-03-21T04:16:09;100164.00;;;7.73;100.00
74524;BME280;63074;44.696;10.358;2023-03-21T04:18:36;100160.50;;;7.72;100.00
74524;BME280;63074;44.696;10.358;2023-03-21T04:21:09;100166.09;;;7.64;100.00
74524;BME280;63074;44.696;10.358;2023-03-21T04:23:38;100167.31;;;7.62;100.00
74524;BME280;63074;44.696;10.358;2023-03-21T04:26:05;100164.84;;;7.67;100.00
74524;BME280;63074;44.696;10.358;2023-03-21T04:28:33;100167.72;;;7.65;100.00
74524;BME280;63074;44.696;10.358;2023-03-21T04:31:01;100162.38;;;7.65;100.00
74524;BME280;63074;44.696;10.358;2023-03-21T04:33:27;100167.50;;;7.67;100.00
74524;BME280;63074;44.696;10.358;2023-03-21T04:35:54;100170.59;;;7.70;100.00
74524;BME280;63074;44.696;10.358;2023-03-21T04:38:24;100176.34;;;7.74;100.00
74524;BME280;63074;44.696;10.358;2023-03-21T04:40:51;100176.13;;;7.75;100.00
74524;BME280;63074;44.696;10.358;2023-03-21T04:43:17;100176.34;;;7.74;100.00
74524;BME280;63074;44.696;10.358;2023-03-21T04:45:43;100186.66;;;7.64;100.00
74524;BME280;63074;44.696;10.358;2023-03-21T04:48:10;100174.09;;;7.71;100.00
74524;BME280;63074;44.696;10.358;2023-03-21T04:50:36;100180.69;;;7.68;100.00
74524;BME280;63074;44.696;10.358;2023-03-21T04:53:02;100174.09;;;7.71;100.00
74524;BME280;63074;44.696;10.358;2023-03-21T04:55:28;100173.84;;;7.79;100.00
74524;BME280;63074;44.696;10.358;2023-03-21T04:57:56;100174.47;;;7.74;100.00
74524;BME280;63074;44.696;10.358;2023-03-21T05:00:22;100174.47;;;7.74;100.00
74524;BME280;63074;44.696;10.358;2023-03-21T05:02:50;100179.56;;;7.83;100.00
74524;BME280;63074;44.696;10.358;2023-03-21T05:05:16;100182.69;;;7.79;100.00
74524;BME280;63074;44.696;10.358;2023-03-21T05:07:42;100178.38;;;7.78;100.00
74524;BME280;63074;44.696;10.358;2023-03-21T05:10:11;100178.41;;;7.72;100.00
74524;BME280;63074;44.696;10.358;2023-03-21T05:12:38;100181.47;;;7.75;100.00
74524;BME280;63074;44.696;10.358;2023-03-21T05:15:05;100180.47;;;7.70;100.00
74524;BME280;63074;44.696;10.358;2023-03-21T05:17:31;100188.69;;;7.68;100.00
74524;BME280;63074;44.696;10.358;2023-03-21T05:19:57;100179.94;;;7.48;100.00
74524;BME280;63074;44.696;10.358;2023-03-21T05:22:24;100184.13;;;7.31;100.00
74524;BME280;63074;44.696;10.358;2023-03-21T05:24:52;100187.47;;;7.06;100.00
74524;BME280;63074;44.696;10.358;2023-03-21T05:27:21;100188.97;;;6.89;100.00
74524;BME280;63074;44.696;10.358;2023-03-21T05:30:06;100186.28;;;6.76;100.00
74524;BME280;63074;44.696;10.358;2023-03-21T05:32:33;100192.69;;;6.62;100.00
74524;BME280;63074;44.696;10.358;2023-03-21T05:34:59;100198.19;;;6.73;100.00
74524;BME280;63074;44.696;10.358;2023-03-21T05:37:26;100194.09;;;6.91;100.00
74524;BME280;63074;44.696;10.358;2023-03-21T05:39:52;100195.25;;;7.21;100.00
74524;BME280;63074;44.696;10.358;2023-03-21T05:42:19;100192.31;;;7.36;100.00
74524;BME280;63074;44.696;10.358;2023-03-21T05:44:46;100202.41;;;7.34;100.00
74524;BME280;63074;44.696;10.358;2023-03-21T05:47:13;100196.00;;;7.41;100.00
74524;BME280;63074;44.696;10.358;2023-03-21T05:49:39;100206.44;;;7.56;100.00
74524;BME280;63074;44.696;10.358;2023-03-21T05:52:06;100207.63;;;7.67;100.00
74524;BME280;63074;44.696;10.358;2023-03-21T05:54:33;100204.13;;;7.66;100.00
74524;BME280;63074;44.696;10.358;2023-03-21T05:56:59;100203.00;;;7.49;100.00
74524;BME280;63074;44.696;10.358;2023-03-21T05:59:26;100203.97;;;7.55;100.00
74524;BME280;63074;44.696;10.358;2023-03-21T06:01:52;100211.56;;;7.64;100.00
74524;BME280;63074;44.696;10.358;2023-03-21T06:04:18;100204.09;;;7.79;100.00
74524;BME280;63074;44.696;10.358;2023-03-21T06:06:44;100208.66;;;7.72;100.00
74524;BME280;63074;44.696;10.358;2023-03-21T06:09:10;100212.13;;;7.73;100.00
74524;BME280;63074;44.696;10.358;2023-03-21T06:11:39;100213.31;;;7.84;100.00
74524;BME280;63074;44.696;10.358;2023-03-21T06:14:07;100204.41;;;7.96;100.00
74524;BME280;63074;44.696;10.358;2023-03-21T06:16:33;100207.88;;;8.03;100.00
74524;BME280;63074;44.696;10.358;2023-03-21T06:19:00;100196.94;;;8.05;100.00
74524;BME280;63074;44.696;10.358;2023-03-21T06:21:26;100210.75;;;8.02;100.00
74524;BME280;63074;44.696;10.358;2023-03-21T06:23:52;100204.09;;;8.11;100.00
74524;BME280;63074;44.696;10.358;2023-03-21T06:26:19;100209.44;;;8.11;100.00
74524;BME280;63074;44.696;10.358;2023-03-21T06:28:48;100205.44;;;7.95;100.00
74524;BME280;63074;44.696;10.358;2023-03-21T06:31:15;100203.13;;;8.05;100.00
74524;BME280;63074;44.696;10.358;2023-03-21T06:33:41;100207.53;;;8.25;100.00
74524;BME280;63074;44.696;10.358;2023-03-21T06:36:11;100210.19;;;8.25;100.00
74524;BME280;63074;44.696;10.358;2023-03-21T06:38:37;100202.19;;;8.18;100.00
74524;BME280;63074;44.696;10.358;2023-03-21T06:41:04;100201.78;;;8.21;100.00
74524;BME280;63074;44.696;10.358;2023-03-21T06:43:32;100204.19;;;8.36;100.00
74524;BME280;63074;44.696;10.358;2023-03-21T06:45:59;100211.28;;;8.49;100.00
74524;BME280;63074;44.696;10.358;2023-03-21T06:48:26;100204.47;;;8.53;100.00
74524;BME280;63074;44.696;10.358;2023-03-21T06:50:53;100211.19;;;8.62;100.00
74524;BME280;63074;44.696;10.358;2023-03-21T06:53:21;100204.81;;;8.63;100.00
74524;BME280;63074;44.696;10.358;2023-03-21T06:55:50;100207.78;;;8.73;100.00
74524;BME280;63074;44.696;10.358;2023-03-21T06:58:16;100203.53;;;8.90;100.00
74524;BME280;63074;44.696;10.358;2023-03-21T07:00:43;100208.56;;;8.98;100.00
74524;BME280;63074;44.696;10.358;2023-03-21T07:03:10;100207.88;;;9.09;100.00
74524;BME280;63074;44.696;10.358;2023-03-21T07:05:37;100208.84;;;9.15;100.00
74524;BME280;63074;44.696;10.358;2023-03-21T07:08:04;100210.09;;;9.31;100.00
74524;BME280;63074;44.696;10.358;2023-03-21T07:10:31;100200.72;;;9.40;100.00
74524;BME280;63074;44.696;10.358;2023-03-21T07:13:00;100207.06;;;9.45;100.00
74524;BME280;63074;44.696;10.358;2023-03-21T07:15:26;100204.13;;;9.65;100.00
74524;BME280;63074;44.696;10.358;2023-03-21T07:17:52;100214.13;;;9.76;100.00
74524;BME280;63074;44.696;10.358;2023-03-21T07:20:19;100207.06;;;9.94;100.00
74524;BME280;63074;44.696;10.358;2023-03-21T07:22:45;100202.66;;;9.99;100.00
74524;BME280;63074;44.696;10.358;2023-03-21T07:25:11;100203.88;;;10.15;100.00
74524;BME280;63074;44.696;10.358;2023-03-21T07:27:38;100205.94;;;10.31;100.00
74524;BME280;63074;44.696;10.358;2023-03-21T07:30:05;100200.00;;;10.41;100.00
74524;BME280;63074;44.696;10.358;2023-03-21T07:32:35;100199.53;;;10.44;100.00
74524;BME280;63074;44.696;10.358;2023-03-21T07:35:03;100200.38;;;10.56;100.00
74524;BME280;63074;44.696;10.358;2023-03-21T07:37:30;100203.56;;;10.76;100.00
74524;BME280;63074;44.696;10.358;2023-03-21T07:39:56;100204.16;;;10.90;100.00
74524;BME280;63074;44.696;10.358;2023-03-21T07:42:23;100205.34;;;10.94;100.00
74524;BME280;63074;44.696;10.358;2023-03-21T07:44:49;100203.22;;;10.96;100.00
74524;BME280;63074;44.696;10.358;2023-03-21T07:47:16;100208.81;;;11.06;100.00
74524;BME280;63074;44.696;10.358;2023-03-21T07:49:42;100212.22;;;11.13;100.00
74524;BME280;63074;44.696;10.358;2023-03-21T07:52:08;100215.59;;;11.21;100.00
74524;BME280;63074;44.696;10.358;2023-03-21T07:54:34;100219.19;;;11.26;100.00
74524;BME280;63074;44.696;10.358;2023-03-21T07:57:00;100220.16;;;11.20;100.00
74524;BME280;63074;44.696;10.358;2023-03-21T07:59:26;100221.34;;;11.24;100.00
74524;BME280;63074;44.696;10.358;2023-03-21T08:01:53;100224.22;;;11.34;100.00
74524;BME280;63074;44.696;10.358;2023-03-21T08:04:19;100221.88;;;11.38;100.00
74524;BME280;63074;44.696;10.358;2023-03-21T08:06:45;100227.84;;;11.40;100.00
74524;BME280;63074;44.696;10.358;2023-03-21T08:09:11;100231.59;;;11.50;100.00
74524;BME280;63074;44.696;10.358;2023-03-21T08:11:38;100233.69;;;11.48;100.00
74524;BME280;63074;44.696;10.358;2023-03-21T08:14:04;100247.97;;;11.37;100.00
74524;BME280;63074;44.696;10.358;2023-03-21T08:16:31;100248.72;;;11.21;100.00
74524;BME280;63074;44.696;10.358;2023-03-21T08:18:57;100248.69;;;11.33;100.00
74524;BME280;63074;44.696;10.358;2023-03-21T08:21:23;100247.19;;;11.25;100.00
74524;BME280;63074;44.696;10.358;2023-03-21T08:23:51;100239.94;;;11.26;100.00
74524;BME280;63074;44.696;10.358;2023-03-21T08:26:17;100241.44;;;11.33;100.00
74524;BME280;63074;44.696;10.358;2023-03-21T08:28:44;100240.97;;;11.48;100.00
74524;BME280;63074;44.696;10.358;2023-03-21T08:31:12;100244.13;;;11.33;100.00
74524;BME280;63074;44.696;10.358;2023-03-21T08:33:38;100235.94;;;11.40;100.00
74524;BME280;63074;44.696;10.358;2023-03-21T08:36:06;100237.91;;;11.33;100.00
74524;BME280;63074;44.696;10.358;2023-03-21T08:38:32;100243.88;;;11.35;100.00
74524;BME280;63074;44.696;10.358;2023-03-21T08:40:59;100246.22;;;11.31;100.00
74524;BME280;63074;44.696;10.358;2023-03-21T08:43:27;100244.34;;;11.32;100.00
74524;BME280;63074;44.696;10.358;2023-03-21T08:45:54;100233.25;;;11.40;100.00
74524;BME280;63074;44.696;10.358;2023-03-21T08:48:21;100239.31;;;11.47;100.00
74524;BME280;63074;44.696;10.358;2023-03-21T08:50:47;100233.69;;;11.48;100.00
74524;BME280;63074;44.696;10.358;2023-03-21T08:53:14;100227.00;;;11.63;100.00
74524;BME280;63074;44.696;10.358;2023-03-21T08:55:40;100231.19;;;11.59;100.00
74524;BME280;63074;44.696;10.358;2023-03-21T08:58:06;100225.56;;;11.72;100.00
74524;BME280;63074;44.696;10.358;2023-03-21T09:00:32;100218.13;;;12.02;100.00
74524;BME280;63074;44.696;10.358;2023-03-21T09:02:58;100217.69;;;11.94;100.00
74524;BME280;63074;44.696;10.358;2023-03-21T09:05:25;100213.41;;;12.09;100.00
74524;BME280;63074;44.696;10.358;2023-03-21T09:07:52;100211.69;;;12.20;100.00
74524;BME280;63074;44.696;10.358;2023-03-21T09:10:20;100215.63;;;12.12;100.00
74524;BME280;63074;44.696;10.358;2023-03-21T09:12:51;100216.72;;;12.45;100.00
74524;BME280;63074;44.696;10.358;2023-03-21T09:15:17;100217.38;;;12.52;100.00
74524;BME280;63074;44.696;10.358;2023-03-21T09:17:46;100221.13;;;12.51;100.00
74524;BME280;63074;44.696;10.358;2023-03-21T09:20:15;100221.88;;;12.46;100.00
74524;BME280;63074;44.696;10.358;2023-03-21T09:22:44;100215.03;;;12.89;100.00
74524;BME280;63074;44.696;10.358;2023-03-21T09:25:12;100216.47;;;13.13;100.00
74524;BME280;63074;44.696;10.358;2023-03-21T09:27:40;100219.00;;;13.03;100.00
74524;BME280;63074;44.696;10.358;2023-03-21T09:30:08;100227.91;;;13.04;100.00
74524;BME280;63074;44.696;10.358;2023-03-21T09:32:36;100219.69;;;12.94;100.00
74524;BME280;63074;44.696;10.358;2023-03-21T09:35:02;100220.63;;;13.04;100.00
74524;BME280;63074;44.696;10.358;2023-03-21T09:37:31;100223.22;;;13.33;100.00
74524;BME280;63074;44.696;10.358;2023-03-21T09:39:58;100227.78;;;13.49;100.00
74524;BME280;63074;44.696;10.358;2023-03-21T09:42:56;100218.44;;;13.57;100.00
74524;BME280;63074;44.696;10.358;2023-03-21T09:45:49;100213.22;;;13.50;100.00
74524;BME280;63074;44.696;10.358;2023-03-21T09:48:42;100216.16;;;13.70;100.00
74524;BME280;63074;44.696;10.358;2023-03-21T09:51:14;100219.31;;;13.84;100.00
74524;BME280;63074;44.696;10.358;2023-03-21T09:53:45;100214.19;;;14.09;100.00
74524;BME280;63074;44.696;10.358;2023-03-21T09:56:14;100211.16;;;14.06;100.00
74524;BME280;63074;44.696;10.358;2023-03-21T09:58:53;100218.16;;;14.02;100.00
74524;BME280;63074;44.696;10.358;2023-03-21T10:01:26;100219.03;;;14.07;100.00
74524;BME280;63074;44.696;10.358;2023-03-21T10:04:03;100215.03;;;14.15;100.00
74524;BME280;63074;44.696;10.358;2023-03-21T10:06:33;100206.00;;;14.58;100.00
74524;BME280;63074;44.696;10.358;2023-03-21T10:11:46;100198.78;;;14.37;100.00
74524;BME280;63074;44.696;10.358;2023-03-21T10:14:32;100192.38;;;14.43;100.00
74524;BME280;63074;44.696;10.358;2023-03-21T10:17:26;100190.50;;;14.80;100.00
74524;BME280;63074;44.696;10.358;2023-03-21T10:22:36;100183.94;;;15.13;100.00
74524;BME280;63074;44.696;10.358;2023-03-21T10:25:03;100181.44;;;15.02;100.00
74524;BME280;63074;44.696;10.358;2023-03-21T10:27:31;100178.78;;;15.64;100.00
74524;BME280;63074;44.696;10.358;2023-03-21T10:29:58;100185.13;;;15.28;100.00
74524;BME280;63074;44.696;10.358;2023-03-21T10:32:26;100181.66;;;15.42;100.00
74524;BME280;63074;44.696;10.358;2023-03-21T10:34:55;100179.63;;;15.17;100.00
74524;BME280;63074;44.696;10.358;2023-03-21T10:37:24;100177.94;;;15.53;100.00
74524;BME280;63074;44.696;10.358;2023-03-21T10:39:52;100180.94;;;15.62;100.00
74524;BME280;63074;44.696;10.358;2023-03-21T10:42:32;100178.63;;;16.01;100.00
74524;BME280;63074;44.696;10.358;2023-03-21T10:45:00;100186.50;;;16.08;100.00
74524;BME280;63074;44.696;10.358;2023-03-21T10:47:30;100184.88;;;16.02;100.00
74524;BME280;63074;44.696;10.358;2023-03-21T10:50:12;100174.88;;;16.33;100.00
74524;BME280;63074;44.696;10.358;2023-03-21T10:52:52;100179.75;;;16.51;100.00
74524;BME280;63074;44.696;10.358;2023-03-21T10:55:33;100170.28;;;16.43;100.00
74524;BME280;63074;44.696;10.358;2023-03-21T10:58:07;100172.72;;;16.60;100.00
74524;BME280;63074;44.696;10.358;2023-03-21T11:00:38;100178.16;;;16.60;100.00
74524;BME280;63074;44.696;10.358;2023-03-21T11:03:07;100168.09;;;16.86;100.00
74524;BME280;63074;44.696;10.358;2023-03-21T11:05:45;100170.81;;;17.01;100.00
74524;BME280;63074;44.696;10.358;2023-03-21T11:08:15;100178.06;;;17.26;100.00
74524;BME280;63074;44.696;10.358;2023-03-21T11:11:01;100164.47;;;17.91;100.00
74524;BME280;63074;44.696;10.358;2023-03-21T11:13:43;100167.44;;;17.99;100.00
74524;BME280;63074;44.696;10.358;2023-03-21T11:16:22;100161.53;;;17.87;100.00
74524;BME280;63074;44.696;10.358;2023-03-21T11:18:55;100156.56;;;17.99;100.00
74524;BME280;63074;44.696;10.358;2023-03-21T11:21:22;100155.38;;;18.15;100.00
74524;BME280;63074;44.696;10.358;2023-03-21T11:23:54;100151.72;;;18.30;100.00
74524;BME280;63074;44.696;10.358;2023-03-21T11:26:31;100158.38;;;18.14;99.09
74524;BME280;63074;44.696;10.358;2023-03-21T11:32:00;100146.53;;;18.34;99.92
74524;BME280;63074;44.696;10.358;2023-03-21T11:37:27;100140.69;;;19.94;93.43
74524;BME280;63074;44.696;10.358;2023-03-21T11:40:20;100141.50;;;20.13;89.62
74524;BME280;63074;44.696;10.358;2023-03-21T11:45:56;100134.84;;;20.70;84.27
74524;BME280;63074;44.696;10.358;2023-03-21T11:48:23;100136.84;;;21.25;81.41
74524;BME280;63074;44.696;10.358;2023-03-21T11:50:54;100127.47;;;20.84;81.40
74524;BME280;63074;44.696;10.358;2023-03-21T11:56:28;100118.97;;;21.68;79.46
74524;BME280;63074;44.696;10.358;2023-03-21T11:59:14;100116.59;;;21.39;78.03
74524;BME280;63074;44.696;10.358;2023-03-21T12:01:57;100115.06;;;21.61;78.58
74524;BME280;63074;44.696;10.358;2023-03-21T12:12:31;100092.56;;;23.06;71.34
74524;BME280;63074;44.696;10.358;2023-03-21T12:23:30;100072.88;;;23.78;66.35
74524;BME280;63074;44.696;10.358;2023-03-21T12:31:06;100077.56;;;23.78;64.03
74524;BME280;63074;44.696;10.358;2023-03-21T12:41:43;100059.78;;;24.82;59.03
74524;BME280;63074;44.696;10.358;2023-03-21T12:44:14;100062.00;;;24.98;57.19
74524;BME280;63074;44.696;10.358;2023-03-21T12:47:01;100045.97;;;25.00;58.78
74524;BME280;63074;44.696;10.358;2023-03-21T12:49:37;100047.91;;;26.57;56.68
74524;BME280;63074;44.696;10.358;2023-03-21T12:52:11;100050.72;;;27.30;52.63
74524;BME280;63074;44.696;10.358;2023-03-21T12:54:51;100048.25;;;27.53;52.30
74524;BME280;63074;44.696;10.358;2023-03-21T13:03:44;100037.19;;;27.01;50.98
74524;BME280;63074;44.696;10.358;2023-03-21T13:08:34;100028.53;;;26.53;49.60
74524;BME280;63074;44.696;10.358;2023-03-21T13:11:02;100033.59;;;27.77;49.23
74524;BME280;63074;44.696;10.358;2023-03-21T13:21:50;100036.91;;;28.10;46.94
74524;BME280;63074;44.696;10.358;2023-03-21T13:29:40;100026.50;;;29.30;45.85
74524;BME280;63074;44.696;10.358;2023-03-21T13:32:30;100020.41;;;29.40;43.13
74524;BME280;63074;44.696;10.358;2023-03-21T13:38:16;100010.66;;;29.84;40.90
74524;BME280;63074;44.696;10.358;2023-03-21T13:41:13;100001.19;;;31.22;40.26
74524;BME280;63074;44.696;10.358;2023-03-21T13:49:12;99991.69;;;30.48;38.84
74524;BME280;63074;44.696;10.358;2023-03-21T13:51:44;99987.75;;;28.79;42.81
74524;BME280;63074;44.696;10.358;2023-03-21T14:02:23;99980.53;;;29.25;41.56
74524;BME280;63074;44.696;10.358;2023-03-21T14:07:28;99975.28;;;29.20;40.67
74524;BME280;63074;44.696;10.358;2023-03-21T14:09:59;99969.72;;;29.74;40.06
74524;BME280;63074;44.696;10.358;2023-03-21T14:12:29;99967.38;;;29.38;39.41
74524;BME280;63074;44.696;10.358;2023-03-21T14:15:03;99968.78;;;29.67;40.57
74524;BME280;63074;44.696;10.358;2023-03-21T14:17:32;99960.91;;;28.64;41.25
74524;BME280;63074;44.696;10.358;2023-03-21T14:20:10;99962.19;;;28.35;41.19
74524;BME280;63074;44.696;10.358;2023-03-21T14:22:41;99962.00;;;28.43;42.19
74524;BME280;63074;44.696;10.358;2023-03-21T14:25:11;99958.75;;;27.94;41.11
74524;BME280;63074;44.696;10.358;2023-03-21T14:27:43;99957.16;;;28.09;41.18
74524;BME280;63074;44.696;10.358;2023-03-21T14:33:12;99956.53;;;28.00;41.88
74524;BME280;63074;44.696;10.358;2023-03-21T14:35:41;99949.97;;;27.76;43.56
74524;BME280;63074;44.696;10.358;2023-03-21T14:38:19;99953.13;;;27.90;43.33
74524;BME280;63074;44.696;10.358;2023-03-21T14:40:48;99944.97;;;27.66;42.72
74524;BME280;63074;44.696;10.358;2023-03-21T14:43:15;99941.19;;;27.18;43.42
74524;BME280;63074;44.696;10.358;2023-03-21T14:45:47;99935.69;;;26.94;43.72
74524;BME280;63074;44.696;10.358;2023-03-21T14:48:15;99940.78;;;26.31;44.51
74524;BME280;63074;44.696;10.358;2023-03-21T14:51:04;99939.72;;;26.23;46.36
74524;BME280;63074;44.696;10.358;2023-03-21T14:53:34;99932.47;;;25.20;46.27
74524;BME280;63074;44.696;10.358;2023-03-21T14:56:06;99928.13;;;24.60;48.15
74524;BME280;63074;44.696;10.358;2023-03-21T14:58:38;99926.63;;;24.71;48.54